Time;durP1;ratioP1;P1;durP2;ratioP2;P2;SDS_P1;SDS_P2;PMS_P1;PMS_P2;Temp;Humidity;BMP_temperature;BMP_pressure;BME280_temperature;BME280_humidity;BME280_pressure;Samples;Min_cycle;Max_cycle;Signal;HPM_P1;HPM_P2
2023/12/24 05:58:21;;;;;;;;;2.00;2.00;;;;;;;;5715195;22;46085;-71
2023/12/24 06:00:47;;;;;;;;;3.25;3.00;;;;;;;;5048227;28;45442;-71
2023/12/24 06:03:12;;;;;;;;;2.33;1.00;;;;;;;;5032658;28;45552;-72
2023/12/24 06:05:37;;;;;;;;;5.33;2.00;;;;;;;;5038015;28;45428;-72
2023/12/24 06:08:02;;;;;;;;;2.00;2.00;;;;;;;;5036542;28;45466;-72
2023/12/24 06:10:28;;;;;;;;;3.75;2.00;;;;;;;;5028849;28;45628;-72
2023/12/24 06:12:54;;;;;;;;;2.33;1.33;;;;;;;;5031596;28;45483;-72
2023/12/24 06:15:19;;;;;;;;;2.00;2.00;;;;;;;;5035387;28;45272;-72
2023/12/24 06:17:44;;;;;;;;;5.67;2.33;;;;;;;;5036753;28;45334;-72
2023/12/24 06:20:09;;;;;;;;;7.00;4.00;;;;;;;;5039203;28;45452;-73
2023/12/24 06:22:35;;;;;;;;;4.50;2.75;;;;;;;;5038939;28;46424;-73
2023/12/24 06:25:00;;;;;;;;;1.67;1.67;;;;;;;;5033766;28;45362;-73
2023/12/24 06:27:25;;;;;;;;;3.67;2.00;;;;;;;;5038980;28;44839;-74
2023/12/24 06:29:50;;;;;;;;;3.00;1.00;;;;;;;;5035562;28;45479;-74
2023/12/24 06:32:15;;;;;;;;;3.00;3.00;;;;;;;;5038658;28;45629;-74
2023/12/24 06:34:41;;;;;;;;;3.67;2.33;;;;;;;;5035379;28;45305;-74
2023/12/24 06:37:07;;;;;;;;;2.00;2.00;;;;;;;;5040546;28;45228;-74
2023/12/24 06:39:32;;;;;;;;;2.33;2.33;;;;;;;;5033810;28;45497;-73
2023/12/24 06:41:58;;;;;;;;;2.00;1.00;;;;;;;;5040293;28;45414;-73
2023/12/24 06:44:23;;;;;;;;;3.00;2.00;;;;;;;;5038242;28;45392;-73
2023/12/24 06:46:48;;;;;;;;;3.33;2.33;;;;;;;;5040696;28;45217;-73
2023/12/24 06:49:13;;;;;;;;;2.00;2.00;;;;;;;;5028226;28;45222;-73
2023/12/24 06:51:38;;;;;;;;;3.67;2.33;;;;;;;;5040410;28;45299;-73
2023/12/24 06:54:04;;;;;;;;;2.00;2.00;;;;;;;;5029594;28;45327;-73
2023/12/24 06:56:29;;;;;;;;;3.67;0.00;;;;;;;;5039573;28;45355;-73
2023/12/24 06:58:54;;;;;;;;;2.67;1.67;;;;;;;;5047598;28;45704;-73
2023/12/24 07:01:19;;;;;;;;;4.00;3.00;;;;;;;;5038722;28;47188;-73
2023/12/24 07:03:45;;;;;;;;;3.00;2.00;;;;;;;;5030986;28;45237;-73
2023/12/24 07:06:10;;;;;;;;;3.33;2.00;;;;;;;;5030789;28;45404;-73
2023/12/24 07:08:35;;;;;;;;;3.00;2.00;;;;;;;;5034492;28;45378;-73
2023/12/24 07:11:00;;;;;;;;;3.67;1.00;;;;;;;;5047435;28;47369;-72
2023/12/24 07:13:25;;;;;;;;;7.00;1.67;;;;;;;;5033637;28;45435;-73
2023/12/24 07:15:52;;;;;;;;;2.33;1.00;;;;;;;;5047952;28;45319;-72
2023/12/24 07:18:17;;;;;;;;;3.00;3.00;;;;;;;;5033626;28;45452;-73
2023/12/24 07:20:42;;;;;;;;;1.00;1.00;;;;;;;;5034001;28;45424;-73
2023/12/24 07:23:07;;;;;;;;;4.00;2.00;;;;;;;;5033935;28;44750;-73
2023/12/24 07:25:32;;;;;;;;;2.00;2.00;;;;;;;;5050061;28;45365;-73
2023/12/24 07:27:57;;;;;;;;;2.00;2.00;;;;;;;;5034845;28;45355;-73
2023/12/24 07:30:23;;;;;;;;;2.00;1.00;;;;;;;;5033774;28;45546;-73
2023/12/24 07:32:48;;;;;;;;;3.33;1.33;;;;;;;;5050072;28;45888;-72
2023/12/24 07:35:13;;;;;;;;;2.00;2.00;;;;;;;;5026549;28;45408;-73
2023/12/24 07:37:40;;;;;;;;;1.33;1.33;;;;;;;;5037090;28;45338;-73
2023/12/24 07:40:08;;;;;;;;;5.00;2.00;;;;;;;;5028570;28;45585;-72
2023/12/24 07:42:34;;;;;;;;;4.00;1.00;;;;;;;;5036547;28;45318;-74
2023/12/24 07:45:00;;;;;;;;;1.67;1.00;;;;;;;;5028849;28;44796;-74
2023/12/24 07:47:25;;;;;;;;;5.33;2.00;;;;;;;;5035922;28;45396;-72
2023/12/24 07:49:50;;;;;;;;;2.00;2.00;;;;;;;;5022169;28;46573;-73
2023/12/24 07:52:15;;;;;;;;;2.00;2.00;;;;;;;;5046432;28;45516;-74
2023/12/24 07:54:40;;;;;;;;;2.33;1.33;;;;;;;;5023478;28;45520;-74
2023/12/24 07:57:05;;;;;;;;;2.00;2.00;;;;;;;;5031973;28;45497;-74
2023/12/24 07:59:31;;;;;;;;;1.00;1.00;;;;;;;;5028849;28;45394;-74
2023/12/24 08:01:56;;;;;;;;;6.33;2.00;;;;;;;;5038052;28;45322;-74
2023/12/24 08:04:21;;;;;;;;;3.00;1.67;;;;;;;;5035460;28;45372;-74
2023/12/24 08:06:46;;;;;;;;;4.00;2.00;;;;;;;;5039643;28;45402;-74
2023/12/24 08:09:11;;;;;;;;;2.33;1.00;;;;;;;;5030224;28;46298;-74
2023/12/24 08:11:37;;;;;;;;;4.33;1.00;;;;;;;;5039937;28;45318;-74
2023/12/24 08:14:02;;;;;;;;;3.00;2.00;;;;;;;;5033252;28;45472;-74
2023/12/24 08:16:27;;;;;;;;;4.00;1.00;;;;;;;;5052399;28;46002;-74
2023/12/24 08:18:52;;;;;;;;;2.67;1.33;;;;;;;;5029836;28;45529;-75
2023/12/24 08:21:18;;;;;;;;;2.33;1.00;;;;;;;;5039293;28;45298;-74
2023/12/24 08:23:43;;;;;;;;;8.00;1.00;;;;;;;;5048985;28;45598;-75
2023/12/24 08:26:08;;;;;;;;;4.00;2.00;;;;;;;;5038031;28;46198;-75
2023/12/24 08:28:33;;;;;;;;;4.33;2.33;;;;;;;;5034407;28;45502;-74
2023/12/24 08:31:00;;;;;;;;;3.00;2.00;;;;;;;;5039085;28;45355;-74
2023/12/24 08:33:25;;;;;;;;;4.00;2.00;;;;;;;;5030872;28;46510;-75
2023/12/24 08:35:50;;;;;;;;;4.00;1.00;;;;;;;;5038251;28;45256;-74
2023/12/24 08:38:16;;;;;;;;;3.33;3.33;;;;;;;;5030554;28;45512;-75
2023/12/24 08:40:41;;;;;;;;;2.00;2.00;;;;;;;;5033074;28;45258;-75
2023/12/24 08:43:06;;;;;;;;;5.33;2.00;;;;;;;;5033220;28;45651;-74
2023/12/24 08:45:31;;;;;;;;;1.00;1.00;;;;;;;;5034126;28;45351;-75
2023/12/24 08:47:57;;;;;;;;;3.00;3.00;;;;;;;;5034287;28;45750;-75
2023/12/24 08:50:22;;;;;;;;;2.00;2.00;;;;;;;;5033688;28;45347;-75
2023/12/24 08:52:48;;;;;;;;;4.33;1.67;;;;;;;;5035821;28;45247;-74
2023/12/24 08:55:15;;;;;;;;;7.00;1.00;;;;;;;;5048974;28;46693;-75
2023/12/24 08:57:40;;;;;;;;;2.33;1.00;;;;;;;;5036161;28;45415;-75
2023/12/24 09:00:06;;;;;;;;;3.33;3.00;;;;;;;;5034672;28;45425;-74
2023/12/24 09:02:31;;;;;;;;;4.67;2.00;;;;;;;;5025271;28;45433;-76
2023/12/24 09:04:58;;;;;;;;;5.33;3.00;;;;;;;;5032638;28;45462;-76
2023/12/24 09:07:23;;;;;;;;;4.33;2.67;;;;;;;;5043800;28;46063;-76
2023/12/24 09:09:48;;;;;;;;;5.00;3.00;;;;;;;;5036484;28;45275;-77
2023/12/24 09:12:15;;;;;;;;;7.00;5.00;;;;;;;;5036758;28;45329;-77
2023/12/24 09:14:40;;;;;;;;;3.00;2.00;;;;;;;;5050974;28;46021;-77
2023/12/24 09:17:05;;;;;;;;;3.00;1.67;;;;;;;;5042559;28;48573;-76
2023/12/24 09:19:30;;;;;;;;;6.67;3.00;;;;;;;;5025365;28;45355;-74
2023/12/24 09:21:55;;;;;;;;;1.33;1.33;;;;;;;;5027664;28;45259;-75
2023/12/24 09:24:21;;;;;;;;;1.67;1.67;;;;;;;;5031940;28;45228;-75
2023/12/24 09:26:46;;;;;;;;;2.33;1.00;;;;;;;;5040139;28;45532;-75
2023/12/24 09:29:11;;;;;;;;;4.67;3.00;;;;;;;;5035624;28;45405;-77
2023/12/24 09:31:38;;;;;;;;;4.00;2.00;;;;;;;;5045549;28;45339;-77
2023/12/24 09:34:03;;;;;;;;;3.00;3.00;;;;;;;;5050826;28;46083;-75
2023/12/24 09:36:28;;;;;;;;;3.00;3.00;;;;;;;;5032333;28;46333;-76
2023/12/24 09:38:53;;;;;;;;;5.33;3.67;;;;;;;;5035480;28;45276;-76
2023/12/24 09:41:21;;;;;;;;;4.00;3.00;;;;;;;;5034051;28;45295;-76
2023/12/24 09:43:47;;;;;;;;;3.33;1.33;;;;;;;;5038053;28;47002;-76
2023/12/24 09:46:12;;;;;;;;;2.67;2.00;;;;;;;;5034537;28;45774;-77
2023/12/24 09:48:37;;;;;;;;;3.00;2.00;;;;;;;;5038835;28;45752;-77
2023/12/24 09:51:02;;;;;;;;;3.33;2.67;;;;;;;;5036144;28;45390;-76
2023/12/24 09:53:28;;;;;;;;;3.00;2.00;;;;;;;;5037853;28;45420;-76
2023/12/24 09:55:55;;;;;;;;;4.00;3.67;;;;;;;;5037734;28;45343;-76
2023/12/24 09:58:20;;;;;;;;;3.33;2.00;;;;;;;;5034944;28;45318;-75
2023/12/24 10:00:45;;;;;;;;;1.67;1.00;;;;;;;;5031547;28;45182;-76
2023/12/24 10:03:10;;;;;;;;;6.67;1.33;;;;;;;;5038040;28;45284;-77
2023/12/24 10:05:54;;;;;;;;;6.00;2.67;;;;;;;;5026055;28;45472;-77
2023/12/24 10:08:19;;;;;;;;;1.67;1.67;;;;;;;;5054394;28;46773;-78
2023/12/24 10:10:44;;;;;;;;;2.33;1.67;;;;;;;;5040997;28;45260;-77
2023/12/24 10:13:10;;;;;;;;;2.00;2.00;;;;;;;;5037082;28;45592;-77
2023/12/24 10:15:38;;;;;;;;;2.33;2.00;;;;;;;;5042539;28;45452;-76
2023/12/24 10:18:17;;;;;;;;;3.00;2.00;;;;;;;;5039014;28;45169;-77
2023/12/24 10:20:42;;;;;;;;;6.33;3.67;;;;;;;;5034796;28;45322;-78
2023/12/24 10:23:07;;;;;;;;;3.00;1.33;;;;;;;;5039331;28;45446;-77
2023/12/24 10:25:32;;;;;;;;;5.67;2.33;;;;;;;;5034816;28;45579;-77
2023/12/24 10:28:07;;;;;;;;;2.33;1.00;;;;;;;;5036057;28;45246;-75
2023/12/24 10:30:33;;;;;;;;;2.00;1.00;;;;;;;;5035468;28;46524;-77
2023/12/24 10:33:08;;;;;;;;;2.00;2.00;;;;;;;;5042037;28;45255;-77
2023/12/24 10:35:34;;;;;;;;;3.67;2.00;;;;;;;;5031083;28;46336;-76
2023/12/24 10:38:06;;;;;;;;;3.00;1.00;;;;;;;;5038569;28;45409;-74
2023/12/24 10:40:31;;;;;;;;;4.33;3.00;;;;;;;;5030313;28;45522;-75
2023/12/24 10:42:56;;;;;;;;;3.33;2.00;;;;;;;;5034606;28;45637;-74
2023/12/24 10:45:22;;;;;;;;;2.00;2.00;;;;;;;;5047188;28;47052;-74
2023/12/24 10:47:47;;;;;;;;;9.33;2.00;;;;;;;;5038840;28;45249;-74
2023/12/24 10:50:12;;;;;;;;;5.33;4.00;;;;;;;;5047285;28;45398;-74
2023/12/24 10:52:38;;;;;;;;;1.00;0.00;;;;;;;;5039561;28;45505;-75
2023/12/24 10:55:03;;;;;;;;;3.00;1.00;;;;;;;;5032678;28;45390;-74
2023/12/24 10:57:34;;;;;;;;;3.67;2.00;;;;;;;;5038473;28;45271;-74
2023/12/24 11:00:12;;;;;;;;;2.67;2.67;;;;;;;;5040863;28;45424;-74
2023/12/24 11:02:42;;;;;;;;;1.33;1.33;;;;;;;;5039069;28;45421;-77
2023/12/24 11:05:07;;;;;;;;;5.33;3.33;;;;;;;;5023973;28;45539;-77
2023/12/24 11:07:45;;;;;;;;;3.33;2.33;;;;;;;;5038524;28;45224;-77
2023/12/24 11:10:31;;;;;;;;;6.67;2.67;;;;;;;;5043416;28;45450;-77
2023/12/24 11:12:57;;;;;;;;;5.00;3.00;;;;;;;;5038252;28;45438;-75
2023/12/24 11:15:38;;;;;;;;;3.00;3.00;;;;;;;;5030237;28;47240;-75
2023/12/24 11:18:03;;;;;;;;;4.00;2.00;;;;;;;;5038482;28;45455;-76
2023/12/24 11:20:29;;;;;;;;;3.67;2.33;;;;;;;;5033148;28;46097;-76
2023/12/24 11:23:03;;;;;;;;;4.00;3.00;;;;;;;;5038224;28;44908;-75
2023/12/24 11:25:37;;;;;;;;;2.00;2.00;;;;;;;;5033750;28;46650;-75
2023/12/24 11:28:09;;;;;;;;;5.00;2.67;;;;;;;;5047852;28;45330;-75
2023/12/24 11:31:07;;;;;;;;;5.00;3.00;;;;;;;;5024940;28;45285;-76
2023/12/24 11:33:42;;;;;;;;;5.67;3.00;;;;;;;;5011868;28;46125;-77
2023/12/24 11:36:10;;;;;;;;;2.33;2.00;;;;;;;;5031194;28;46771;-76
2023/12/24 11:38:35;;;;;;;;;11.67;4.67;;;;;;;;5032351;28;45390;-79
2023/12/24 11:41:03;;;;;;;;;4.00;2.00;;;;;;;;5044589;28;45413;-82
2023/12/24 11:43:28;;;;;;;;;6.33;3.00;;;;;;;;5042881;28;45683;-79
2023/12/24 11:45:54;;;;;;;;;5.67;2.67;;;;;;;;5043185;28;46469;-78
2023/12/24 11:48:19;;;;;;;;;5.67;2.00;;;;;;;;5031118;28;45419;-81
2023/12/24 11:50:44;;;;;;;;;7.00;3.67;;;;;;;;5046785;28;45344;-77
2023/12/24 11:53:09;;;;;;;;;3.67;2.67;;;;;;;;5034110;28;45513;-77
2023/12/24 11:55:35;;;;;;;;;3.67;3.67;;;;;;;;5039082;28;45318;-79
2023/12/24 11:58:01;;;;;;;;;2.00;2.00;;;;;;;;5035217;28;45376;-76
2023/12/24 12:00:27;;;;;;;;;3.00;3.00;;;;;;;;5038423;28;45280;-77
2023/12/24 12:02:54;;;;;;;;;5.33;3.00;;;;;;;;5037315;28;45370;-76
2023/12/24 12:05:19;;;;;;;;;2.33;1.33;;;;;;;;5039664;28;45556;-75
2023/12/24 12:07:44;;;;;;;;;6.33;4.00;;;;;;;;5037684;28;45485;-76
2023/12/24 12:10:09;;;;;;;;;4.00;1.33;;;;;;;;5038831;28;45252;-76
2023/12/24 12:12:35;;;;;;;;;2.00;2.00;;;;;;;;5031490;28;45517;-76
2023/12/24 12:15:00;;;;;;;;;6.00;2.33;;;;;;;;5031596;28;45266;-77
2023/12/24 12:17:25;;;;;;;;;7.33;3.00;;;;;;;;5038289;28;45534;-77
2023/12/24 12:19:50;;;;;;;;;3.00;3.00;;;;;;;;5033230;28;45335;-77
2023/12/24 12:22:15;;;;;;;;;4.00;3.67;;;;;;;;5033928;28;45615;-77
2023/12/24 12:24:41;;;;;;;;;2.67;2.00;;;;;;;;5033586;28;46821;-77
2023/12/24 12:27:06;;;;;;;;;1.00;1.00;;;;;;;;5032141;28;44777;-76
2023/12/24 12:29:31;;;;;;;;;3.33;2.00;;;;;;;;5025567;28;45606;-76
2023/12/24 12:31:58;;;;;;;;;4.67;2.00;;;;;;;;5058094;28;45522;-76
2023/12/24 12:34:23;;;;;;;;;6.33;3.00;;;;;;;;5036708;28;47507;-76
2023/12/24 12:36:49;;;;;;;;;2.00;2.00;;;;;;;;5043361;28;45362;-76
2023/12/24 12:39:14;;;;;;;;;0.33;0.00;;;;;;;;5031723;28;45621;-76
2023/12/24 12:41:39;;;;;;;;;4.33;3.00;;;;;;;;5023280;28;46193;-76
2023/12/24 12:44:04;;;;;;;;;4.00;2.00;;;;;;;;5031730;28;48030;-77
2023/12/24 12:46:30;;;;;;;;;4.00;2.33;;;;;;;;5036534;28;45421;-77
2023/12/24 12:48:55;;;;;;;;;4.00;2.33;;;;;;;;5038073;28;45414;-76
2023/12/24 12:51:20;;;;;;;;;2.00;2.00;;;;;;;;5067088;28;46090;-78
2023/12/24 12:53:45;;;;;;;;;1.67;1.67;;;;;;;;5037022;28;46358;-77
2023/12/24 12:56:10;;;;;;;;;5.00;4.00;;;;;;;;5039972;28;45427;-74
2023/12/24 12:58:36;;;;;;;;;4.00;3.00;;;;;;;;5034290;28;45639;-80
2023/12/24 13:01:01;;;;;;;;;3.67;1.00;;;;;;;;5032881;28;46531;-81
2023/12/24 13:03:26;;;;;;;;;4.33;2.00;;;;;;;;5040045;28;45359;-78
2023/12/24 13:05:52;;;;;;;;;4.33;3.00;;;;;;;;5053354;28;45441;-78
2023/12/24 13:08:17;;;;;;;;;4.67;2.33;;;;;;;;5043355;28;45412;-78
2023/12/24 13:10:43;;;;;;;;;6.67;3.67;;;;;;;;5048430;28;45219;-77
2023/12/24 13:13:18;;;;;;;;;4.00;2.00;;;;;;;;5048732;28;45398;-77
2023/12/24 13:15:44;;;;;;;;;3.00;3.00;;;;;;;;5057699;28;45264;-77
2023/12/24 13:18:19;;;;;;;;;9.67;9.00;;;;;;;;5049216;28;45575;-76
2023/12/24 13:20:45;;;;;;;;;12.00;9.67;;;;;;;;5042260;28;46189;-77
2023/12/24 13:23:10;;;;;;;;;51.25;42.25;;;;;;;;5039693;28;46733;-77
2023/12/24 13:25:40;;;;;;;;;16.67;14.33;;;;;;;;5063757;28;45392;-77
2023/12/24 13:28:05;;;;;;;;;4.33;4.33;;;;;;;;5033726;28;45501;-78
2023/12/24 13:30:30;;;;;;;;;6.00;2.00;;;;;;;;5032340;28;45311;-77
2023/12/24 13:32:55;;;;;;;;;3.33;2.33;;;;;;;;5031942;28;45601;-76
2023/12/24 13:35:20;;;;;;;;;2.33;2.00;;;;;;;;5045134;28;45315;-78
2023/12/24 13:37:46;;;;;;;;;3.00;3.00;;;;;;;;5039665;28;45640;-75
2023/12/24 13:40:12;;;;;;;;;7.00;3.00;;;;;;;;5032905;28;45438;-77
2023/12/24 13:42:37;;;;;;;;;4.67;3.33;;;;;;;;5030702;28;47330;-76
2023/12/24 13:45:03;;;;;;;;;6.00;3.00;;;;;;;;5028952;28;45320;-77
2023/12/24 13:47:28;;;;;;;;;6.00;1.33;;;;;;;;5040042;28;45152;-76
2023/12/24 13:49:56;;;;;;;;;2.33;1.00;;;;;;;;5034573;28;45240;-77
2023/12/24 13:52:21;;;;;;;;;4.00;3.33;;;;;;;;5041101;28;45554;-76
2023/12/24 13:54:46;;;;;;;;;3.00;3.00;;;;;;;;5040366;28;45343;-75
2023/12/24 13:57:11;;;;;;;;;2.00;2.00;;;;;;;;5054588;28;45347;-76
2023/12/24 13:59:36;;;;;;;;;3.00;3.00;;;;;;;;5037054;28;45631;-78
2023/12/24 14:02:02;;;;;;;;;7.00;5.67;;;;;;;;5054079;28;45664;-78
2023/12/24 14:04:27;;;;;;;;;22.75;19.75;;;;;;;;5053761;28;45401;-79
2023/12/24 14:06:52;;;;;;;;;6.00;3.67;;;;;;;;5042544;28;45441;-78
2023/12/24 14:09:17;;;;;;;;;164.25;153.50;;;;;;;;5030200;28;45468;-79
2023/12/24 14:11:44;;;;;;;;;7.00;5.00;;;;;;;;5041220;28;45645;-80
2023/12/24 14:14:09;;;;;;;;;33.00;31.00;;;;;;;;5030468;28;45355;-81
2023/12/24 14:16:34;;;;;;;;;5.00;4.00;;;;;;;;5042048;28;45392;-81
2023/12/24 14:18:59;;;;;;;;;5.67;5.33;;;;;;;;5031406;28;45460;-81
2023/12/24 14:21:24;;;;;;;;;6.33;2.33;;;;;;;;5045367;28;46295;-79
2023/12/24 14:23:50;;;;;;;;;5.67;3.67;;;;;;;;5043550;28;44718;-81
2023/12/24 14:26:15;;;;;;;;;7.67;7.00;;;;;;;;5045479;28;45264;-79
2023/12/24 14:28:41;;;;;;;;;5.00;3.00;;;;;;;;5055578;28;45295;-79
2023/12/24 14:31:06;;;;;;;;;3.67;2.00;;;;;;;;5039685;28;46862;-79
2023/12/24 14:33:31;;;;;;;;;4.33;2.00;;;;;;;;5033994;28;45434;-77
2023/12/24 14:35:57;;;;;;;;;5.33;3.00;;;;;;;;5039597;28;45564;-78
2023/12/24 14:38:22;;;;;;;;;5.00;4.00;;;;;;;;5036364;28;45314;-77
2023/12/24 14:40:48;;;;;;;;;4.00;2.33;;;;;;;;5033858;28;47456;-78
2023/12/24 14:43:13;;;;;;;;;4.00;3.00;;;;;;;;5035689;28;45272;-77
2023/12/24 14:45:39;;;;;;;;;4.00;3.00;;;;;;;;5038647;28;45347;-78
2023/12/24 14:48:04;;;;;;;;;3.33;3.00;;;;;;;;5038458;28;45290;-78
2023/12/24 14:50:30;;;;;;;;;4.00;2.67;;;;;;;;5040585;28;47927;-78
2023/12/24 14:52:55;;;;;;;;;4.33;2.67;;;;;;;;5045063;28;45503;-78
2023/12/24 14:55:20;;;;;;;;;6.33;3.33;;;;;;;;5051580;28;45327;-77
2023/12/24 14:57:45;;;;;;;;;3.67;2.67;;;;;;;;5033224;28;45366;-78
2023/12/24 15:00:12;;;;;;;;;4.67;4.00;;;;;;;;5039696;28;45338;-78
2023/12/24 15:02:37;;;;;;;;;5.00;3.00;;;;;;;;5039863;28;45337;-78
2023/12/24 15:05:03;;;;;;;;;4.00;2.67;;;;;;;;5041106;28;44970;-77
2023/12/24 15:07:28;;;;;;;;;6.00;4.00;;;;;;;;5041083;28;45298;-78
2023/12/24 15:09:53;;;;;;;;;6.00;4.67;;;;;;;;5035311;28;45393;-77
2023/12/24 15:12:19;;;;;;;;;6.00;3.00;;;;;;;;5039856;28;45234;-78
2023/12/24 15:14:44;;;;;;;;;2.33;2.00;;;;;;;;5032921;28;45322;-78
2023/12/24 15:17:13;;;;;;;;;5.00;3.00;;;;;;;;5040573;28;45525;-78
2023/12/24 15:19:38;;;;;;;;;8.33;5.67;;;;;;;;5033800;28;45169;-77
2023/12/24 15:22:03;;;;;;;;;6.00;4.00;;;;;;;;5048720;28;45495;-80
2023/12/24 15:24:29;;;;;;;;;5.00;4.00;;;;;;;;5038319;28;47368;-78
2023/12/24 15:26:54;;;;;;;;;1.67;1.67;;;;;;;;5040255;28;45371;-78
2023/12/24 15:29:19;;;;;;;;;6.00;3.67;;;;;;;;5030384;28;47044;-78
2023/12/24 15:31:44;;;;;;;;;2.50;1.50;;;;;;;;5031906;28;45209;-78
2023/12/24 15:34:10;;;;;;;;;6.00;3.33;;;;;;;;5043505;28;45615;-77
2023/12/24 15:36:39;;;;;;;;;5.67;3.33;;;;;;;;5032546;28;44769;-78
2023/12/24 15:39:04;;;;;;;;;5.33;4.00;;;;;;;;5032644;28;46590;-78
2023/12/24 15:41:29;;;;;;;;;4.33;3.67;;;;;;;;5052953;28;45405;-78
2023/12/24 15:43:54;;;;;;;;;2.67;2.00;;;;;;;;5036860;28;45472;-78
2023/12/24 15:46:19;;;;;;;;;4.67;2.67;;;;;;;;5049911;28;45648;-77
2023/12/24 15:48:44;;;;;;;;;4.00;2.67;;;;;;;;5034290;28;45379;-78
2023/12/24 15:51:10;;;;;;;;;2.00;1.67;;;;;;;;5035352;28;45275;-79
2023/12/24 15:53:35;;;;;;;;;3.33;3.00;;;;;;;;5036667;28;45237;-79
2023/12/24 15:56:00;;;;;;;;;4.00;2.67;;;;;;;;5050011;28;46222;-79
2023/12/24 15:58:26;;;;;;;;;5.67;5.00;;;;;;;;5036146;28;45529;-81
2023/12/24 16:00:51;;;;;;;;;5.33;3.00;;;;;;;;5039436;28;45335;-78
2023/12/24 16:03:16;;;;;;;;;7.00;3.00;;;;;;;;5037645;28;45436;-80
2023/12/24 16:05:41;;;;;;;;;7.67;6.33;;;;;;;;5039316;28;45822;-79
2023/12/24 16:08:06;;;;;;;;;8.00;6.33;;;;;;;;5038261;28;45428;-79
2023/12/24 16:10:32;;;;;;;;;4.00;2.00;;;;;;;;5032813;28;45369;-78
2023/12/24 16:12:57;;;;;;;;;5.00;3.67;;;;;;;;5037605;28;45395;-78
2023/12/24 16:15:23;;;;;;;;;4.00;2.00;;;;;;;;5035590;28;46710;-78
2023/12/24 16:17:48;;;;;;;;;4.00;4.00;;;;;;;;5027603;28;45504;-78
2023/12/24 16:20:14;;;;;;;;;2.67;2.67;;;;;;;;5027013;28;45220;-78
2023/12/24 16:22:39;;;;;;;;;3.00;3.00;;;;;;;;5030332;28;45449;-78
2023/12/24 16:25:05;;;;;;;;;4.00;3.33;;;;;;;;5038941;28;45522;-76
2023/12/24 16:27:31;;;;;;;;;3.00;3.00;;;;;;;;5036309;28;46958;-81
2023/12/24 16:29:57;;;;;;;;;5.00;5.00;;;;;;;;5046500;28;45362;-78
2023/12/24 16:32:22;;;;;;;;;5.67;3.00;;;;;;;;5039024;28;45353;-78
2023/12/24 16:34:47;;;;;;;;;6.00;5.00;;;;;;;;5035223;28;45367;-76
2023/12/24 16:37:12;;;;;;;;;3.33;2.00;;;;;;;;5038543;28;45383;-80
2023/12/24 16:39:38;;;;;;;;;9.00;4.00;;;;;;;;5031885;28;44940;-77
2023/12/24 16:42:03;;;;;;;;;6.00;3.00;;;;;;;;5037344;28;45323;-77
2023/12/24 16:44:28;;;;;;;;;4.00;4.00;;;;;;;;5035103;28;45347;-75
2023/12/24 16:46:53;;;;;;;;;2.67;2.33;;;;;;;;5055410;28;47947;-79
2023/12/24 16:49:18;;;;;;;;;6.33;5.33;;;;;;;;5041338;28;45402;-74
2023/12/24 16:51:44;;;;;;;;;7.00;4.67;;;;;;;;5045984;28;45266;-75
2023/12/24 16:54:09;;;;;;;;;5.33;4.33;;;;;;;;5030494;28;45580;-76
2023/12/24 16:56:34;;;;;;;;;7.33;5.00;;;;;;;;5036094;28;45354;-74
2023/12/24 16:58:59;;;;;;;;;6.00;4.00;;;;;;;;5036753;28;46509;-74
2023/12/24 17:01:25;;;;;;;;;6.33;4.67;;;;;;;;5038423;28;45296;-74
2023/12/24 17:03:51;;;;;;;;;9.33;7.00;;;;;;;;5032900;28;45458;-74
2023/12/24 17:06:16;;;;;;;;;4.33;4.00;;;;;;;;5048190;28;47133;-75
2023/12/24 17:08:41;;;;;;;;;6.00;3.33;;;;;;;;5032877;28;45412;-74
2023/12/24 17:11:07;;;;;;;;;9.67;6.00;;;;;;;;5033711;28;45555;-74
2023/12/24 17:13:32;;;;;;;;;4.33;1.67;;;;;;;;5034603;28;45544;-74
2023/12/24 17:16:01;;;;;;;;;6.00;4.33;;;;;;;;5030944;28;45598;-74
2023/12/24 17:18:28;;;;;;;;;5.00;3.00;;;;;;;;5034496;28;45409;-76
2023/12/24 17:20:53;;;;;;;;;7.00;4.00;;;;;;;;5031049;28;45340;-74
2023/12/24 17:23:18;;;;;;;;;5.00;4.33;;;;;;;;5032719;28;45346;-76
2023/12/24 17:25:43;;;;;;;;;7.00;5.00;;;;;;;;5023601;28;46566;-74
2023/12/24 17:28:09;;;;;;;;;6.00;4.33;;;;;;;;5032080;28;45419;-76
2023/12/24 17:30:34;;;;;;;;;4.00;3.67;;;;;;;;5025106;28;45301;-76
2023/12/24 17:32:59;;;;;;;;;8.00;3.67;;;;;;;;5034791;28;45646;-76
2023/12/24 17:35:24;;;;;;;;;9.00;6.00;;;;;;;;5024924;28;45256;-75
2023/12/24 17:37:49;;;;;;;;;6.00;6.00;;;;;;;;5034537;28;45382;-76
2023/12/24 17:40:15;;;;;;;;;10.00;6.67;;;;;;;;5027744;28;45583;-76
2023/12/24 17:42:40;;;;;;;;;11.00;11.00;;;;;;;;5038519;28;45659;-76
2023/12/24 17:45:06;;;;;;;;;7.67;6.00;;;;;;;;5030088;28;46208;-76
2023/12/24 17:47:32;;;;;;;;;9.67;4.00;;;;;;;;5036415;28;45177;-77
2023/12/24 17:49:57;;;;;;;;;4.00;3.00;;;;;;;;5040430;28;45336;-76
2023/12/24 17:52:23;;;;;;;;;6.00;5.00;;;;;;;;5040664;28;45484;-76
2023/12/24 17:54:48;;;;;;;;;8.33;6.33;;;;;;;;5033164;28;45670;-76
2023/12/24 17:57:14;;;;;;;;;10.00;7.00;;;;;;;;5040496;28;45330;-76
2023/12/24 17:59:41;;;;;;;;;5.33;5.33;;;;;;;;5034951;28;46189;-76
2023/12/24 18:02:07;;;;;;;;;7.67;4.00;;;;;;;;5041206;28;45509;-76
2023/12/24 18:04:32;;;;;;;;;18.00;15.33;;;;;;;;5037426;28;45354;-76
2023/12/24 18:06:57;;;;;;;;;7.00;5.00;;;;;;;;5039571;28;45284;-74
2023/12/24 18:09:22;;;;;;;;;12.67;11.00;;;;;;;;5031045;28;45377;-74
2023/12/24 18:11:47;;;;;;;;;6.00;4.33;;;;;;;;5040962;28;45358;-74
2023/12/24 18:14:12;;;;;;;;;8.00;6.00;;;;;;;;5031581;28;47649;-75
2023/12/24 18:16:38;;;;;;;;;3.67;3.67;;;;;;;;5040779;28;45233;-75
2023/12/24 18:19:04;;;;;;;;;8.00;5.00;;;;;;;;5032646;28;45347;-75
2023/12/24 18:21:29;;;;;;;;;12.67;7.00;;;;;;;;5039020;28;46759;-75
2023/12/24 18:23:54;;;;;;;;;10.00;8.67;;;;;;;;5033800;28;45583;-75
2023/12/24 18:26:19;;;;;;;;;12.00;9.00;;;;;;;;5040424;28;45243;-75
2023/12/24 18:28:45;;;;;;;;;8.00;7.00;;;;;;;;5031339;28;45382;-75
2023/12/24 18:31:10;;;;;;;;;6.00;5.00;;;;;;;;5031837;28;45360;-75
2023/12/24 18:33:36;;;;;;;;;6.00;3.00;;;;;;;;5032622;28;45426;-75
2023/12/24 18:36:02;;;;;;;;;5.67;4.67;;;;;;;;5033361;28;45433;-75
2023/12/24 18:38:27;;;;;;;;;7.00;4.00;;;;;;;;5033878;28;45360;-75
2023/12/24 18:40:52;;;;;;;;;10.00;8.67;;;;;;;;5034690;28;45479;-75
2023/12/24 18:43:17;;;;;;;;;11.33;9.33;;;;;;;;5034575;28;46313;-75
2023/12/24 18:45:43;;;;;;;;;8.00;7.67;;;;;;;;5035411;28;45158;-75
2023/12/24 18:48:08;;;;;;;;;10.33;8.33;;;;;;;;5036708;28;45457;-75
2023/12/24 18:50:33;;;;;;;;;9.33;8.00;;;;;;;;5035771;28;45236;-75
2023/12/24 18:52:58;;;;;;;;;10.33;8.00;;;;;;;;5037610;28;45422;-75
2023/12/24 18:55:24;;;;;;;;;7.33;7.33;;;;;;;;5036597;28;45282;-75
2023/12/24 18:57:49;;;;;;;;;13.00;8.67;;;;;;;;5038640;28;45126;-75
2023/12/24 19:00:14;;;;;;;;;7.00;5.00;;;;;;;;5036996;28;45216;-75
2023/12/24 19:02:40;;;;;;;;;7.00;6.67;;;;;;;;5036558;28;46883;-75
2023/12/24 19:05:05;;;;;;;;;4.67;3.67;;;;;;;;5030586;28;45196;-75
2023/12/24 19:07:30;;;;;;;;;10.67;10.00;;;;;;;;5054603;28;45216;-75
2023/12/24 19:09:56;;;;;;;;;7.00;6.00;;;;;;;;5046201;28;45433;-75
2023/12/24 19:12:21;;;;;;;;;7.67;7.00;;;;;;;;5038301;28;46052;-75
2023/12/24 19:14:47;;;;;;;;;10.33;7.00;;;;;;;;5031853;28;45476;-75
2023/12/24 19:17:13;;;;;;;;;10.67;6.00;;;;;;;;5039807;28;45375;-75
2023/12/24 19:19:38;;;;;;;;;13.00;8.00;;;;;;;;5032253;28;45461;-74
2023/12/24 19:22:06;;;;;;;;;12.67;7.00;;;;;;;;5056155;28;46724;-74
2023/12/24 19:24:32;;;;;;;;;7.67;4.67;;;;;;;;5031812;28;45303;-74
2023/12/24 19:26:57;;;;;;;;;13.00;10.33;;;;;;;;5040869;28;45220;-74
2023/12/24 19:29:22;;;;;;;;;10.33;10.33;;;;;;;;5041952;28;45202;-75
2023/12/24 19:31:48;;;;;;;;;11.33;11.00;;;;;;;;5031484;28;45373;-74
2023/12/24 19:34:13;;;;;;;;;6.67;6.00;;;;;;;;5030933;28;45197;-74
2023/12/24 19:36:38;;;;;;;;;10.33;8.33;;;;;;;;5041481;28;45216;-73
2023/12/24 19:39:04;;;;;;;;;10.00;7.33;;;;;;;;5038331;28;46030;-75
2023/12/24 19:41:29;;;;;;;;;14.33;9.67;;;;;;;;5034206;28;45520;-75
2023/12/24 19:43:54;;;;;;;;;8.67;8.67;;;;;;;;5034046;28;45450;-76
2023/12/24 19:46:24;;;;;;;;;11.00;9.00;;;;;;;;5035393;28;45255;-75
2023/12/24 19:48:51;;;;;;;;;8.33;8.00;;;;;;;;5036940;28;46104;-75
2023/12/24 19:51:16;;;;;;;;;12.67;8.00;;;;;;;;5035903;28;45640;-75
2023/12/24 19:53:41;;;;;;;;;6.67;4.33;;;;;;;;5034949;28;45396;-75
2023/12/24 19:56:06;;;;;;;;;5.67;5.67;;;;;;;;5037129;28;46410;-74
2023/12/24 19:58:32;;;;;;;;;8.33;6.67;;;;;;;;5036278;28;45578;-74
2023/12/24 20:00:57;;;;;;;;;5.00;4.33;;;;;;;;5040537;28;45474;-74
2023/12/24 20:03:22;;;;;;;;;7.67;7.00;;;;;;;;5038577;28;45378;-74
2023/12/24 20:05:47;;;;;;;;;12.33;8.00;;;;;;;;5040746;28;44777;-74
2023/12/24 20:08:12;;;;;;;;;6.67;6.67;;;;;;;;5038105;28;45218;-76
2023/12/24 20:10:37;;;;;;;;;11.00;6.67;;;;;;;;5031255;28;46545;-75
2023/12/24 20:13:03;;;;;;;;;7.33;7.00;;;;;;;;5037723;28;45280;-75
2023/12/24 20:15:29;;;;;;;;;8.00;7.67;;;;;;;;5032974;28;45333;-76
2023/12/24 20:17:54;;;;;;;;;8.67;6.33;;;;;;;;5038192;28;45600;-76
2023/12/24 20:20:19;;;;;;;;;4.00;4.00;;;;;;;;5034048;28;46521;-75
2023/12/24 20:22:44;;;;;;;;;7.33;6.00;;;;;;;;5038264;28;45209;-75
2023/12/24 20:25:09;;;;;;;;;4.33;4.33;;;;;;;;5024969;28;45213;-75
2023/12/24 20:27:34;;;;;;;;;6.00;5.33;;;;;;;;5034028;28;45343;-75
2023/12/24 20:30:00;;;;;;;;;10.00;5.00;;;;;;;;5026604;28;46542;-76